Detailed System and Site Information

System Data Health
Measure Timestamp Ago Health
Web Server Live 09:28:03, 30th August 2014 0 s health
Last live-data upload from local system (nw3) 09:28:02, 30th August 2014 1 s health
Last upload of secondary data 09:00:29, 30th August 2014 28 mins health
Latest Webcam upload 09:27:08, 30th August 2014 55 s health
Last upload of 24hr data log 09:24:08, 30th August 2014 4 mins health
Last full data process 09:25:02, 30th August 2014 3 mins health
Last data downtime (>15 mins) 17:01:02, 2nd April 2014 150 days
Local System and Site Information
Measure Value
WD Version & Build # 10.37R - 40
WD Start Time 08:30 23/07/14
WD Data Count 1133070
WD Memory Use 83,776 K
--- ---
Windows Uptime 38 Days 0 Hours 30 Minutes 47 Seconds
Free System Memory 2335 MB (Max: 4GB)
--- ---
Station Altitude 57 m (187 ft)
Station Latitude 51.556
Station Longitude -0.154
Machine Room Conditions
Measure Value
Temperature 22.2 °C
Temperature Trend +0.1 °C /hr
Relative Humidity 52%
Dew Point 11.9 °C
--- ---
Tmin Today 22.0 °C at 05:30
Tmax Today 22.2 °C at 00:00
Hmin Today 51% at 00:00
Hmax Today 53% at 03:39
Tmin Yesterday 21.5 °C at 06:24
Tmax Yesterday 22.8 °C at 11:55

Site owner and administrator: Ben Lee-Rodgers (2010 - present)

Last 10hrs Temp/Hum for Secondary Sensor and Indoors

Extra Sensors/Indoor

Other

Raw METAR from EGLL (Heathrow)

EGLL 300750Z 27014KT CAVOK 15/10 Q1015
Decode Instructions
Source

WD Screenshot

not available